Terminal Aerodrome Forecast
Issued by NWS Charleston, WV

Current Version | Previous Version | Graphics & Text | Print | Product List | Glossary Off
Versions: 1 2 3 4 5 6 7 8 9 10 11 12 13 14 15 16 17 18 19 20 21 22 23 24 25 26 27 28 29 30

000
FTUS41 KRLX 241132
TAFHTS
TAF
KHTS 241132Z 2412/2512 31008KT P6SM FEW005 OVC008
     FM241500 27007KT P6SM OVC013
     FM242200 27007KT P6SM OVC022
     FM250200 23004KT P6SM BKN035
     FM250400 VRB03KT P6SM SCT140=

USA.gov is the U.S. government's official web portal to all federal, state and local government web resources and services.